Aviation Digital Data Service (ADDS)

Output produced by METARs form (2320 UTC 18 August 2019)
found at http://www.aviationweather.gov/metar/data/
 
METAR text: OOSA 182250Z 17003KT 140V210 8000 SCT008 BKN010 OVC018 25/24 Q1004 NOSIG
Conditions at: OOSA (SALALAH , OM) observed 2250 UTC 18 August 2019
Temperature: 25.0°C (77°F)
Dewpoint: 24.0°C (75°F) [RH = 94%]
Pressure (altimeter): 29.65 inches Hg (1004.0 mb)
Winds: from the S (170 degrees) at 3 MPH (3 knots; 1.5 m/s)
Visibility: 5 miles ( 8 km)
Ceiling: 1000 feet AGL
Clouds: scattered clouds at 800 feet AGL
broken clouds at 1000 feet AGL
overcast cloud deck at 1800 feet AGL
Weather: no significant weather observed at this time

METAR text: OOSA 182150Z 18004KT 7000 FEW006 SCT010 OVC020 25/24 Q1005 NOSIG
Conditions at: OOSA (SALALAH , OM) observed 2150 UTC 18 August 2019
Temperature: 25.0°C (77°F)
Dewpoint: 24.0°C (75°F) [RH = 94%]
Pressure (altimeter): 29.68 inches Hg (1005.0 mb)
Winds: from the S (180 degrees) at 5 MPH (4 knots; 2.1 m/s)
Visibility: 4 miles ( 7 km)
Ceiling: 2000 feet AGL
Clouds: few clouds at 600 feet AGL
scattered clouds at 1000 feet AGL
overcast cloud deck at 2000 feet AGL
Weather: no significant weather observed at this time

METAR text: OOSA 182050Z 17005KT 8000 FEW006 SCT012 OVC025 25/24 Q1005 NOSIG
Conditions at: OOSA (SALALAH , OM) observed 2050 UTC 18 August 2019
Temperature: 25.0°C (77°F)
Dewpoint: 24.0°C (75°F) [RH = 94%]
Pressure (altimeter): 29.68 inches Hg (1005.0 mb)
Winds: from the S (170 degrees) at 6 MPH (5 knots; 2.6 m/s)
Visibility: 5 miles ( 8 km)
Ceiling: 2500 feet AGL
Clouds: few clouds at 600 feet AGL
scattered clouds at 1200 feet AGL
overcast cloud deck at 2500 feet AGL
Weather: no significant weather observed at this time

METAR text: OOSA 181950Z 16004KT 8000 FEW008 SCT014 OVC025 26/25 Q1005 NOSIG
Conditions at: OOSA (SALALAH , OM) observed 1950 UTC 18 August 2019
Temperature: 26.0°C (79°F)
Dewpoint: 25.0°C (77°F) [RH = 94%]
Pressure (altimeter): 29.68 inches Hg (1005.0 mb)
Winds: from the SSE (160 degrees) at 5 MPH (4 knots; 2.1 m/s)
Visibility: 5 miles ( 8 km)
Ceiling: 2500 feet AGL
Clouds: few clouds at 800 feet AGL
scattered clouds at 1400 feet AGL
overcast cloud deck at 2500 feet AGL
Weather: no significant weather observed at this time

METAR text: OOSA 181850Z 17004KT 9000 SCT014 BKN025 26/25 Q1006 NOSIG
Conditions at: OOSA (SALALAH , OM) observed 1850 UTC 18 August 2019
Temperature: 26.0°C (79°F)
Dewpoint: 25.0°C (77°F) [RH = 94%]
Pressure (altimeter): 29.70 inches Hg (1006.0 mb)
Winds: from the S (170 degrees) at 5 MPH (4 knots; 2.1 m/s)
Visibility: 6 miles ( 9 km)
Ceiling: 2500 feet AGL
Clouds: scattered clouds at 1400 feet AGL
broken clouds at 2500 feet AGL
Weather: no significant weather observed at this time

METAR text: OOSA 181750Z 18006KT 9000 SCT014 BKN025 26/25 Q1005 NOSIG
Conditions at: OOSA (SALALAH , OM) observed 1750 UTC 18 August 2019
Temperature: 26.0°C (79°F)
Dewpoint: 25.0°C (77°F) [RH = 94%]
Pressure (altimeter): 29.68 inches Hg (1005.0 mb)
Winds: from the S (180 degrees) at 7 MPH (6 knots; 3.1 m/s)
Visibility: 6 miles ( 9 km)
Ceiling: 2500 feet AGL
Clouds: scattered clouds at 1400 feet AGL
broken clouds at 2500 feet AGL
Weather: no significant weather observed at this time

METAR text: OOSA 181650Z 18005KT 7000 SCT014 BKN025 26/25 Q1004 NOSIG
Conditions at: OOSA (SALALAH , OM) observed 1650 UTC 18 August 2019
Temperature: 26.0°C (79°F)
Dewpoint: 25.0°C (77°F) [RH = 94%]
Pressure (altimeter): 29.65 inches Hg (1004.0 mb)
Winds: from the S (180 degrees) at 6 MPH (5 knots; 2.6 m/s)
Visibility: 4 miles ( 7 km)
Ceiling: 2500 feet AGL
Clouds: scattered clouds at 1400 feet AGL
broken clouds at 2500 feet AGL
Weather: no significant weather observed at this time

METAR text: OOSA 181550Z 20005KT 7000 FEW008 SCT014 OVC025 26/25 Q1004 NOSIG
Conditions at: OOSA (SALALAH , OM) observed 1550 UTC 18 August 2019
Temperature: 26.0°C (79°F)
Dewpoint: 25.0°C (77°F) [RH = 94%]
Pressure (altimeter): 29.65 inches Hg (1004.0 mb)
Winds: from the SSW (200 degrees) at 6 MPH (5 knots; 2.6 m/s)
Visibility: 4 miles ( 7 km)
Ceiling: 2500 feet AGL
Clouds: few clouds at 800 feet AGL
scattered clouds at 1400 feet AGL
overcast cloud deck at 2500 feet AGL
Weather: no significant weather observed at this time

METAR text: OOSA 181450Z 19007KT 6000 FEW008 SCT014 OVC025 26/25 Q1003 NOSIG
Conditions at: OOSA (SALALAH , OM) observed 1450 UTC 18 August 2019
Temperature: 26.0°C (79°F)
Dewpoint: 25.0°C (77°F) [RH = 94%]
Pressure (altimeter): 29.62 inches Hg (1003.0 mb)
Winds: from the S (190 degrees) at 8 MPH (7 knots; 3.6 m/s)
Visibility: 4 miles ( 6 km)
Ceiling: 2500 feet AGL
Clouds: few clouds at 800 feet AGL
scattered clouds at 1400 feet AGL
overcast cloud deck at 2500 feet AGL
Weather: no significant weather observed at this time

METAR text: OOSA 181350Z 20009KT 8000 FEW008 SCT014 OVC025 26/25 Q1003 NOSIG
Conditions at: OOSA (SALALAH , OM) observed 1350 UTC 18 August 2019
Temperature: 26.0°C (79°F)
Dewpoint: 25.0°C (77°F) [RH = 94%]
Pressure (altimeter): 29.62 inches Hg (1003.0 mb)
Winds: from the SSW (200 degrees) at 10 MPH (9 knots; 4.6 m/s)
Visibility: 5 miles ( 8 km)
Ceiling: 2500 feet AGL
Clouds: few clouds at 800 feet AGL
scattered clouds at 1400 feet AGL
overcast cloud deck at 2500 feet AGL
Weather: no significant weather observed at this time

METAR text: OOSA 181250Z 18007KT 8000 FEW008 SCT014 OVC025 27/25 Q1003 NOSIG
Conditions at: OOSA (SALALAH , OM) observed 1250 UTC 18 August 2019
Temperature: 27.0°C (81°F)
Dewpoint: 25.0°C (77°F) [RH = 89%]
Pressure (altimeter): 29.62 inches Hg (1003.0 mb)
Winds: from the S (180 degrees) at 8 MPH (7 knots; 3.6 m/s)
Visibility: 5 miles ( 8 km)
Ceiling: 2500 feet AGL
Clouds: few clouds at 800 feet AGL
scattered clouds at 1400 feet AGL
overcast cloud deck at 2500 feet AGL
Weather: no significant weather observed at this time

METAR text: OOSA 181150Z 19009KT 8000 FEW008 SCT014 OVC025 27/25 Q1003 NOSIG
Conditions at: OOSA (SALALAH , OM) observed 1150 UTC 18 August 2019
Temperature: 27.0°C (81°F)
Dewpoint: 25.0°C (77°F) [RH = 89%]
Pressure (altimeter): 29.62 inches Hg (1003.0 mb)
Winds: from the S (190 degrees) at 10 MPH (9 knots; 4.6 m/s)
Visibility: 5 miles ( 8 km)
Ceiling: 2500 feet AGL
Clouds: few clouds at 800 feet AGL
scattered clouds at 1400 feet AGL
overcast cloud deck at 2500 feet AGL
Weather: no significant weather observed at this time

METAR text: OOSA 181050Z 19009KT 9000 FEW010 SCT014 OVC025 27/25 Q1003 NOSIG
Conditions at: OOSA (SALALAH , OM) observed 1050 UTC 18 August 2019
Temperature: 27.0°C (81°F)
Dewpoint: 25.0°C (77°F) [RH = 89%]
Pressure (altimeter): 29.62 inches Hg (1003.0 mb)
Winds: from the S (190 degrees) at 10 MPH (9 knots; 4.6 m/s)
Visibility: 6 miles ( 9 km)
Ceiling: 2500 feet AGL
Clouds: few clouds at 1000 feet AGL
scattered clouds at 1400 feet AGL
overcast cloud deck at 2500 feet AGL
Weather: no significant weather observed at this time

METAR text: OOSA 180950Z 19009KT 9000 FEW010 BKN014 OVC020 27/24 Q1004 NOSIG
Conditions at: OOSA (SALALAH , OM) observed 0950 UTC 18 August 2019
Temperature: 27.0°C (81°F)
Dewpoint: 24.0°C (75°F) [RH = 84%]
Pressure (altimeter): 29.65 inches Hg (1004.0 mb)
Winds: from the S (190 degrees) at 10 MPH (9 knots; 4.6 m/s)
Visibility: 6 miles ( 9 km)
Ceiling: 1400 feet AGL
Clouds: few clouds at 1000 feet AGL
broken clouds at 1400 feet AGL
overcast cloud deck at 2000 feet AGL
Weather: no significant weather observed at this time

METAR text: OOSA 180850Z 20008KT 160V230 7000 FEW010 BKN014 OVC020 27/25 Q1004 NOSIG
Conditions at: OOSA (SALALAH , OM) observed 0850 UTC 18 August 2019
Temperature: 27.0°C (81°F)
Dewpoint: 25.0°C (77°F) [RH = 89%]
Pressure (altimeter): 29.65 inches Hg (1004.0 mb)
Winds: from the SSW (200 degrees) at 9 MPH (8 knots; 4.1 m/s)
Visibility: 4 miles ( 7 km)
Ceiling: 1400 feet AGL
Clouds: few clouds at 1000 feet AGL
broken clouds at 1400 feet AGL
overcast cloud deck at 2000 feet AGL
Weather: no significant weather observed at this time

METAR text: OOSA 180750Z 20010KT 5000 HZ SCT009 BKN012 OVC020 27/24 Q1005 TEMPO 7000
Conditions at: OOSA (SALALAH , OM) observed 0750 UTC 18 August 2019
Temperature: 27.0°C (81°F)
Dewpoint: 24.0°C (75°F) [RH = 84%]
Pressure (altimeter): 29.68 inches Hg (1005.0 mb)
Winds: from the SSW (200 degrees) at 12 MPH (10 knots; 5.1 m/s)
Visibility: 3 miles ( 5 km)
Ceiling: 1200 feet AGL
Clouds: scattered clouds at 900 feet AGL
broken clouds at 1200 feet AGL
overcast cloud deck at 2000 feet AGL
Weather: HZ  (haze)

METAR text: OOSA 180650Z 22004KT 180V250 1800 DZ BR SCT004 BKN008 OVC018 25/25 Q1005 TEMPO3000
Conditions at: OOSA (SALALAH , OM) observed 0650 UTC 18 August 2019
Temperature: 25.0°C (77°F)
Dewpoint: 25.0°C (77°F) [RH = 100%]
Pressure (altimeter): 29.68 inches Hg (1005.0 mb)
Winds: from the SW (220 degrees) at 5 MPH (4 knots; 2.1 m/s)
Visibility: 1.12 miles (1.80 km)
Ceiling: 800 feet AGL
Clouds: scattered clouds at 400 feet AGL
broken clouds at 800 feet AGL
overcast cloud deck at 1800 feet AGL
Weather: DZ BR  (moderate drizzle, mist)

METAR text: OOSA 180550Z 18004KT 150V210 2500 -DZBR SCT007 BKN010 OVC018 26/25 Q1005 TEMPO 5000 RH96 RMK50
Conditions at: OOSA (SALALAH , OM) observed 0550 UTC 18 August 2019
Temperature: 26.0°C (79°F)
Dewpoint: 25.0°C (77°F) [RH = 94%]
Pressure (altimeter): 29.68 inches Hg (1005.0 mb)
Winds: from the S (180 degrees) at 5 MPH (4 knots; 2.1 m/s)
Visibility: 1.55 miles (2.49 km)
Ceiling: 1000 feet AGL
Clouds: scattered clouds at 700 feet AGL
broken clouds at 1000 feet AGL
overcast cloud deck at 1800 feet AGL
Weather: -DZ BR  (light drizzle, mist)

METAR text: OOSA 180450Z 18003KT 150V210 3000 BR SCT007 BKN010 OVC018 25/25 Q1005 TEMPO 5000
Conditions at: OOSA (SALALAH , OM) observed 0450 UTC 18 August 2019
Temperature: 25.0°C (77°F)
Dewpoint: 25.0°C (77°F) [RH = 100%]
Pressure (altimeter): 29.68 inches Hg (1005.0 mb)
Winds: from the S (180 degrees) at 3 MPH (3 knots; 1.5 m/s)
Visibility: 1.86 miles (2.99 km)
Ceiling: 1000 feet AGL
Clouds: scattered clouds at 700 feet AGL
broken clouds at 1000 feet AGL
overcast cloud deck at 1800 feet AGL
Weather: BR  (mist)

METAR text: OOSA 180350Z 10004KT 1800 -DZBR SCT005 BKN010 OVC018 25/24 Q1005 NOSIG
Conditions at: OOSA (SALALAH , OM) observed 0350 UTC 18 August 2019
Temperature: 25.0°C (77°F)
Dewpoint: 24.0°C (75°F) [RH = 94%]
Pressure (altimeter): 29.68 inches Hg (1005.0 mb)
Winds: from the E (100 degrees) at 5 MPH (4 knots; 2.1 m/s)
Visibility: 1.12 miles (1.80 km)
Ceiling: 1000 feet AGL
Clouds: scattered clouds at 500 feet AGL
broken clouds at 1000 feet AGL
overcast cloud deck at 1800 feet AGL
Weather: -DZ BR  (light drizzle, mist)

METAR text: OOSA 180250Z 13004KT 3500 DZBR SCT006 BKN010 OVC018 25/24 Q1005 NOSIG
Conditions at: OOSA (SALALAH , OM) observed 0250 UTC 18 August 2019
Temperature: 25.0°C (77°F)
Dewpoint: 24.0°C (75°F) [RH = 94%]
Pressure (altimeter): 29.68 inches Hg (1005.0 mb)
Winds: from the SE (130 degrees) at 5 MPH (4 knots; 2.1 m/s)
Visibility: 2.17 miles (3.49 km)
Ceiling: 1000 feet AGL
Clouds: scattered clouds at 600 feet AGL
broken clouds at 1000 feet AGL
overcast cloud deck at 1800 feet AGL
Weather: DZ BR  (moderate drizzle, mist)

METAR text: OOSA 180150Z 12004KT 5000 -DZBR SCT007 BKN014 OVC022 25/24 Q1004 NOSIG
Conditions at: OOSA (SALALAH , OM) observed 0150 UTC 18 August 2019
Temperature: 25.0°C (77°F)
Dewpoint: 24.0°C (75°F) [RH = 94%]
Pressure (altimeter): 29.65 inches Hg (1004.0 mb)
Winds: from the ESE (120 degrees) at 5 MPH (4 knots; 2.1 m/s)
Visibility: 3 miles ( 5 km)
Ceiling: 1400 feet AGL
Clouds: scattered clouds at 700 feet AGL
broken clouds at 1400 feet AGL
overcast cloud deck at 2200 feet AGL
Weather: -DZ BR  (light drizzle, mist)

METAR text: OOSA 180050Z 12006KT 6000 SCT008 BKN012 OVC020 25/24 Q1004 NOSIG
Conditions at: OOSA (SALALAH , OM) observed 0050 UTC 18 August 2019
Temperature: 25.0°C (77°F)
Dewpoint: 24.0°C (75°F) [RH = 94%]
Pressure (altimeter): 29.65 inches Hg (1004.0 mb)
Winds: from the ESE (120 degrees) at 7 MPH (6 knots; 3.1 m/s)
Visibility: 4 miles ( 6 km)
Ceiling: 1200 feet AGL
Clouds: scattered clouds at 800 feet AGL
broken clouds at 1200 feet AGL
overcast cloud deck at 2000 feet AGL
Weather: no significant weather observed at this time

METAR text: OOSA 172350Z 13005KT 7000 SCT008 BKN014 OVC025 25/24 Q1004 NOSIG
Conditions at: OOSA (SALALAH , OM) observed 2350 UTC 17 August 2019
Temperature: 25.0°C (77°F)
Dewpoint: 24.0°C (75°F) [RH = 94%]
Pressure (altimeter): 29.65 inches Hg (1004.0 mb)
Winds: from the SE (130 degrees) at 6 MPH (5 knots; 2.6 m/s)
Visibility: 4 miles ( 7 km)
Ceiling: 1400 feet AGL
Clouds: scattered clouds at 800 feet AGL
broken clouds at 1400 feet AGL
overcast cloud deck at 2500 feet AGL
Weather: no significant weather observed at this time

METAR text: OOSA 172250Z 15004KT 8000 SCT008 BKN015 OVC025 25/24 Q1004 NOSIG
Conditions at: OOSA (SALALAH , OM) observed 2250 UTC 17 August 2019
Temperature: 25.0°C (77°F)
Dewpoint: 24.0°C (75°F) [RH = 94%]
Pressure (altimeter): 29.65 inches Hg (1004.0 mb)
Winds: from the SSE (150 degrees) at 5 MPH (4 knots; 2.1 m/s)
Visibility: 5 miles ( 8 km)
Ceiling: 1500 feet AGL
Clouds: scattered clouds at 800 feet AGL
broken clouds at 1500 feet AGL
overcast cloud deck at 2500 feet AGL
Weather: no significant weather observed at this time

METAR text: OOSA 172150Z 15005KT 7000 SCT008 BKN015 OVC025 25/24 Q1004 NOSIG
Conditions at: OOSA (SALALAH , OM) observed 2150 UTC 17 August 2019
Temperature: 25.0°C (77°F)
Dewpoint: 24.0°C (75°F) [RH = 94%]
Pressure (altimeter): 29.65 inches Hg (1004.0 mb)
Winds: from the SSE (150 degrees) at 6 MPH (5 knots; 2.6 m/s)
Visibility: 4 miles ( 7 km)
Ceiling: 1500 feet AGL
Clouds: scattered clouds at 800 feet AGL
broken clouds at 1500 feet AGL
overcast cloud deck at 2500 feet AGL
Weather: no significant weather observed at this time

METAR text: OOSA 172050Z 16004KT 130V190 8000 SCT008 BKN015 OVC025 25/24 Q1004 NOSIG
Conditions at: OOSA (SALALAH , OM) observed 2050 UTC 17 August 2019
Temperature: 25.0°C (77°F)
Dewpoint: 24.0°C (75°F) [RH = 94%]
Pressure (altimeter): 29.65 inches Hg (1004.0 mb)
Winds: from the SSE (160 degrees) at 5 MPH (4 knots; 2.1 m/s)
Visibility: 5 miles ( 8 km)
Ceiling: 1500 feet AGL
Clouds: scattered clouds at 800 feet AGL
broken clouds at 1500 feet AGL
overcast cloud deck at 2500 feet AGL
Weather: no significant weather observed at this time

METAR text: OOSA 171950Z 16006KT 7000 SCT007 BKN015 OVC025 25/24 Q1005 NOSIG
Conditions at: OOSA (SALALAH , OM) observed 1950 UTC 17 August 2019
Temperature: 25.0°C (77°F)
Dewpoint: 24.0°C (75°F) [RH = 94%]
Pressure (altimeter): 29.68 inches Hg (1005.0 mb)
Winds: from the SSE (160 degrees) at 7 MPH (6 knots; 3.1 m/s)
Visibility: 4 miles ( 7 km)
Ceiling: 1500 feet AGL
Clouds: scattered clouds at 700 feet AGL
broken clouds at 1500 feet AGL
overcast cloud deck at 2500 feet AGL
Weather: no significant weather observed at this time

METAR text: OOSA 171850Z 18005KT 7000 SCT009 BKN015 OVC025 25/24 Q1004 NOSIG
Conditions at: OOSA (SALALAH , OM) observed 1850 UTC 17 August 2019
Temperature: 25.0°C (77°F)
Dewpoint: 24.0°C (75°F) [RH = 94%]
Pressure (altimeter): 29.65 inches Hg (1004.0 mb)
Winds: from the S (180 degrees) at 6 MPH (5 knots; 2.6 m/s)
Visibility: 4 miles ( 7 km)
Ceiling: 1500 feet AGL
Clouds: scattered clouds at 900 feet AGL
broken clouds at 1500 feet AGL
overcast cloud deck at 2500 feet AGL
Weather: no significant weather observed at this time

METAR text: OOSA 171750Z 18006KT 5000 HZ SCT007 BKN015 OVC025 25/24 Q1004 NOSIG
Conditions at: OOSA (SALALAH , OM) observed 1750 UTC 17 August 2019
Temperature: 25.0°C (77°F)
Dewpoint: 24.0°C (75°F) [RH = 94%]
Pressure (altimeter): 29.65 inches Hg (1004.0 mb)
Winds: from the S (180 degrees) at 7 MPH (6 knots; 3.1 m/s)
Visibility: 3 miles ( 5 km)
Ceiling: 1500 feet AGL
Clouds: scattered clouds at 700 feet AGL
broken clouds at 1500 feet AGL
overcast cloud deck at 2500 feet AGL
Weather: HZ  (haze)

METAR text: OOSA 171650Z 17005KT 5000 HZ SCT009 BKN014 OVC025 26/24 Q1003 NOSIG
Conditions at: OOSA (SALALAH , OM) observed 1650 UTC 17 August 2019
Temperature: 26.0°C (79°F)
Dewpoint: 24.0°C (75°F) [RH = 89%]
Pressure (altimeter): 29.62 inches Hg (1003.0 mb)
Winds: from the S (170 degrees) at 6 MPH (5 knots; 2.6 m/s)
Visibility: 3 miles ( 5 km)
Ceiling: 1400 feet AGL
Clouds: scattered clouds at 900 feet AGL
broken clouds at 1400 feet AGL
overcast cloud deck at 2500 feet AGL
Weather: HZ  (haze)

METAR text: OOSA 171550Z 18007KT 5000 -DZ SCT006 BKN010 OVC020 26/25 Q1002 TEMPO 3000
Conditions at: OOSA (SALALAH , OM) observed 1550 UTC 17 August 2019
Temperature: 26.0°C (79°F)
Dewpoint: 25.0°C (77°F) [RH = 94%]
Pressure (altimeter): 29.59 inches Hg (1002.0 mb)
Winds: from the S (180 degrees) at 8 MPH (7 knots; 3.6 m/s)
Visibility: 3 miles ( 5 km)
Ceiling: 1000 feet AGL
Clouds: scattered clouds at 600 feet AGL
broken clouds at 1000 feet AGL
overcast cloud deck at 2000 feet AGL
Weather: -DZ  (light drizzle)

METAR text: OOSA 171450Z 20006KT 170V230 5000 BR SCT005 BKN010 OVC020 26/25 Q1002 BECMG 4000
Conditions at: OOSA (SALALAH , OM) observed 1450 UTC 17 August 2019
Temperature: 26.0°C (79°F)
Dewpoint: 25.0°C (77°F) [RH = 94%]
Pressure (altimeter): 29.59 inches Hg (1002.0 mb)
Winds: from the SSW (200 degrees) at 7 MPH (6 knots; 3.1 m/s)
Visibility: 3 miles ( 5 km)
Ceiling: 1000 feet AGL
Clouds: scattered clouds at 500 feet AGL
broken clouds at 1000 feet AGL
overcast cloud deck at 2000 feet AGL
Weather: BR  (mist)

METAR text: OOSA 171350Z 17007KT 6000 -DZ SCT006 BKN012 OVC020 26/25 Q1001 NOSIG
Conditions at: OOSA (SALALAH , OM) observed 1350 UTC 17 August 2019
Temperature: 26.0°C (79°F)
Dewpoint: 25.0°C (77°F) [RH = 94%]
Pressure (altimeter): 29.56 inches Hg (1001.0 mb)
Winds: from the S (170 degrees) at 8 MPH (7 knots; 3.6 m/s)
Visibility: 4 miles ( 6 km)
Ceiling: 1200 feet AGL
Clouds: scattered clouds at 600 feet AGL
broken clouds at 1200 feet AGL
overcast cloud deck at 2000 feet AGL
Weather: -DZ  (light drizzle)

METAR text: OOSA 171250Z 18009KT 7000 SCT014 OVC025 26/25 Q1001 NOSIG
Conditions at: OOSA (SALALAH , OM) observed 1250 UTC 17 August 2019
Temperature: 26.0°C (79°F)
Dewpoint: 25.0°C (77°F) [RH = 94%]
Pressure (altimeter): 29.56 inches Hg (1001.0 mb)
Winds: from the S (180 degrees) at 10 MPH (9 knots; 4.6 m/s)
Visibility: 4 miles ( 7 km)
Ceiling: 2500 feet AGL
Clouds: scattered clouds at 1400 feet AGL
overcast cloud deck at 2500 feet AGL
Weather: no significant weather observed at this time

METAR text: OOSA 171150Z 19008KT 8000 SC014 OVC025 27/25 Q1001 NOSIG
Conditions at: OOSA (SALALAH , OM) observed 1150 UTC 17 August 2019
Temperature: 27.0°C (81°F)
Dewpoint: 25.0°C (77°F) [RH = 89%]
Pressure (altimeter): 29.56 inches Hg (1001.0 mb)
Winds: from the S (190 degrees) at 9 MPH (8 knots; 4.1 m/s)
Visibility: 5 miles ( 8 km)
Ceiling: 2500 feet AGL
Clouds: overcast cloud deck at 2500 feet AGL
Weather: no significant weather observed at this time

Forecast for: OOSA (SALALAH , OM)
Text: TAF OOSA 182300Z 1900/2006 VRB03KT 7000 FEW004 BKN009 OVC018
Forecast period: 0000 UTC 19 August 2019 to 0600 UTC 20 August 2019
Forecast type: FROM: standard forecast or significant change
Winds: variable direction winds at 3 MPH (3 knots; 1.5 m/s)
Visibility: 4 miles (7 km)
Ceiling: 900 feet AGL
Clouds: few clouds at 400 feet AGL
broken clouds at 900 feet AGL
overcast cloud deck at 1800 feet AGL
Weather: no significant weather forecast for this period
Text: BECMG 1900/1902 3500 -DZ BR
Forecast period: 0000 to 0600 UTC 19 August 2019
Forecast type: BECOMING: Conditions expected to become as follows by 0200 UTC 19 August 2019
Winds: variable direction winds at 3 MPH (3 knots; 1.5 m/s)
Visibility: 2.17 miles (3.49 km)
Ceiling: 900 feet AGL
Clouds: few clouds at 400 feet AGL
broken clouds at 900 feet AGL
overcast cloud deck at 1800 feet AGL
Weather: -DZ BR  (light drizzle, mist)
Text: PROB40
Forecast period: 0100 to 0400 UTC 19 August 2019
Forecast type: TEMPORARY: The following changes expected for less than half the time period
Visibility: 1.12 miles (1.80 km)
Ceiling: 700 feet AGL
Clouds: scattered clouds at 400 feet AGL
broken clouds at 700 feet AGL
overcast cloud deck at 1400 feet AGL
Weather: no significant weather forecast for this period
Text: TEMPO 1901/1904 1800 SCT004 BKN007 OVC014
Forecast period: 0600 UTC 19 August 2019 to 0600 UTC 20 August 2019
Forecast type: BECOMING: Conditions expected to become as follows by 0800 UTC 19 August 2019
Winds: from the S (190 degrees) at 12 MPH (10 knots; 5.1 m/s)
Visibility: 4 miles (7 km)
Ceiling: 1400 feet AGL
Clouds: few clouds at 800 feet AGL
broken clouds at 1400 feet AGL
overcast cloud deck at 2800 feet AGL
Weather: NSW  (no significant weather)
Text: BECMG 1906/1908 19010KT 7000 NSW FEW008 BKN014 OVC028
Forecast period: 0800 to 1300 UTC 19 August 2019
Forecast type: TEMPORARY: The following changes expected for less than half the time period
Visibility: missing
Ceiling: 2800 feet AGL
Clouds: scattered clouds at 1400 feet AGL
broken clouds at 2800 feet AGL
Weather: no significant weather forecast for this period